Time;durP1;ratioP1;P1;durP2;ratioP2;P2;SDS_P1;SDS_P2;PMS_P1;PMS_P2;Temp;Humidity;BMP_temperature;BMP_pressure;BME280_temperature;BME280_humidity;BME280_pressure;Samples;Min_cycle;Max_cycle;Signal;HPM_P1;HPM_P2
2022/07/14 00:01:19;;;;;;;8.70;1.27;;;16.40;99.90;;;;;;5069936;28;20480;-74
2022/07/14 00:03:45;;;;;;;7.07;1.43;;;16.30;99.90;;;;;;5082872;28;21042;-75
2022/07/14 00:06:10;;;;;;;8.68;1.30;;;16.30;99.90;;;;;;5078744;28;20433;-75
2022/07/14 00:08:36;;;;;;;8.90;1.43;;;16.30;99.90;;;;;;5088005;28;20449;-75
2022/07/14 00:11:02;;;;;;;8.23;1.70;;;16.30;99.90;;;;;;5089583;28;20555;-75
2022/07/14 00:13:28;;;;;;;9.40;1.50;;;16.20;99.90;;;;;;5073004;28;20482;-75
2022/07/14 00:15:54;;;;;;;9.47;1.87;;;16.20;99.90;;;;;;5078955;28;20448;-75
2022/07/14 00:18:19;;;;;;;8.85;1.60;;;16.10;99.90;;;;;;5075105;28;20437;-75
2022/07/14 00:20:45;;;;;;;7.22;1.20;;;16.10;99.90;;;;;;5089340;28;20481;-75
2022/07/14 00:23:11;;;;;;;8.30;1.40;;;16.10;99.90;;;;;;5088956;28;20444;-75
2022/07/14 00:25:37;;;;;;;10.60;1.95;;;16.10;99.90;;;;;;5089245;28;21004;-75
2022/07/14 00:28:02;;;;;;;5.95;1.30;;;16.10;99.90;;;;;;5088771;28;20406;-75
2022/07/14 00:30:28;;;;;;;6.25;1.30;;;16.10;99.90;;;;;;5088654;28;21035;-74
2022/07/14 00:32:54;;;;;;;10.80;1.67;;;16.00;99.90;;;;;;5088915;28;20915;-74
2022/07/14 00:35:20;;;;;;;8.52;1.88;;;16.00;99.90;;;;;;5078015;28;20439;-74
2022/07/14 00:37:46;;;;;;;11.23;1.63;;;16.00;99.90;;;;;;5084955;28;20414;-75
2022/07/14 00:40:12;;;;;;;6.40;1.60;;;16.00;99.90;;;;;;5079340;28;20399;-74
2022/07/14 00:42:45;;;;;;;7.32;1.80;;;16.00;99.90;;;;;;5085342;28;20422;-74
2022/07/14 00:45:17;;;;;;;11.38;2.08;;;16.00;99.90;;;;;;5078142;28;20415;-75
2022/07/14 00:47:43;;;;;;;9.65;1.60;;;16.00;99.90;;;;;;5069874;28;20407;-73
2022/07/14 00:50:10;;;;;;;7.80;1.70;;;15.90;99.90;;;;;;5069225;28;20403;-74
2022/07/14 00:52:36;;;;;;;11.05;2.00;;;15.80;99.90;;;;;;5087130;28;20409;-74
2022/07/14 00:55:03;;;;;;;7.00;2.00;;;15.80;99.90;;;;;;5076867;28;20424;-75
2022/07/14 00:57:28;;;;;;;14.82;2.72;;;15.80;99.90;;;;;;5068937;28;20403;-75
2022/07/14 00:59:55;;;;;;;8.73;1.63;;;15.70;99.90;;;;;;5080579;28;20406;-74
2022/07/14 01:02:21;;;;;;;7.93;2.08;;;15.70;99.90;;;;;;5075321;28;20877;-74
2022/07/14 01:04:47;;;;;;;7.30;1.87;;;15.60;99.90;;;;;;5086291;28;20519;-74
2022/07/14 01:07:15;;;;;;;10.98;1.80;;;15.60;99.90;;;;;;5087801;28;20398;-74
2022/07/14 01:09:41;;;;;;;9.02;2.22;;;15.60;99.90;;;;;;5087761;28;20394;-74
2022/07/14 01:12:09;;;;;;;11.43;2.47;;;15.60;99.90;;;;;;5073768;28;20426;-74
2022/07/14 01:14:35;;;;;;;10.77;2.67;;;15.50;99.90;;;;;;5087077;28;20955;-74
2022/07/14 01:17:02;;;;;;;9.88;2.17;;;15.50;99.90;;;;;;5087861;28;21525;-74
2022/07/14 01:19:27;;;;;;;10.63;2.42;;;15.50;99.90;;;;;;5087253;28;20425;-74
2022/07/14 01:21:55;;;;;;;8.60;2.60;;;15.50;99.90;;;;;;5084234;28;20394;-75
2022/07/14 01:24:24;;;;;;;9.93;2.00;;;15.50;99.90;;;;;;5073464;28;20407;-74
2022/07/14 01:26:50;;;;;;;8.30;1.90;;;15.50;99.90;;;;;;5079763;28;20457;-74
2022/07/14 01:29:17;;;;;;;8.13;1.88;;;15.40;99.90;;;;;;5080996;28;20402;-74
2022/07/14 01:31:43;;;;;;;9.63;2.03;;;15.40;99.90;;;;;;5068094;28;20400;-74
2022/07/14 01:34:09;;;;;;;9.52;2.20;;;15.30;99.90;;;;;;5082869;28;20493;-74
2022/07/14 01:36:35;;;;;;;8.40;2.38;;;15.30;99.90;;;;;;5085986;28;21000;-74
2022/07/14 01:39:01;;;;;;;11.00;2.37;;;15.30;99.90;;;;;;5077532;28;20968;-74
2022/07/14 01:41:27;;;;;;;9.13;2.38;;;15.20;99.90;;;;;;5073507;28;20453;-74
2022/07/14 01:43:54;;;;;;;9.65;2.15;;;15.10;99.90;;;;;;5067110;28;20408;-74
2022/07/14 01:46:19;;;;;;;7.72;2.22;;;15.10;99.90;;;;;;5082269;28;20406;-74
2022/07/14 01:48:45;;;;;;;9.43;2.50;;;15.00;99.90;;;;;;5079750;28;20396;-74
2022/07/14 01:51:10;;;;;;;8.20;2.50;;;15.00;99.90;;;;;;5082420;28;20398;-74
2022/07/14 01:53:36;;;;;;;7.63;2.40;;;15.00;99.90;;;;;;5087754;28;20396;-74
2022/07/14 01:56:02;;;;;;;8.07;2.57;;;15.00;99.90;;;;;;5086362;28;20430;-74
2022/07/14 01:58:27;;;;;;;8.93;2.40;;;14.90;99.90;;;;;;5087352;28;20456;-74
2022/07/14 02:03:38;;;;;;;9.32;2.70;;;14.80;99.90;;;;;;5087704;28;20959;-74
2022/07/14 02:06:04;;;;;;;8.77;2.50;;;14.70;99.90;;;;;;5087426;28;20412;-74
2022/07/14 02:08:29;;;;;;;7.40;2.13;;;14.70;99.90;;;;;;5087570;28;20394;-74
2022/07/14 02:13:39;;;;;;;10.27;2.75;;;14.70;99.90;;;;;;5087682;28;20410;-74
2022/07/14 02:16:05;;;;;;;9.77;2.40;;;14.70;99.90;;;;;;5087606;28;20915;-74
2022/07/14 02:18:31;;;;;;;10.23;2.40;;;14.70;99.90;;;;;;5076094;28;20403;-74
2022/07/14 02:20:57;;;;;;;9.57;2.90;;;14.60;99.90;;;;;;5072530;28;20460;-74
2022/07/14 02:23:23;;;;;;;14.43;2.60;;;14.60;99.90;;;;;;5087591;28;20406;-74
2022/07/14 02:25:49;;;;;;;7.03;2.47;;;14.60;99.90;;;;;;5068864;28;20457;-74
2022/07/14 02:28:15;;;;;;;9.68;2.60;;;14.50;99.90;;;;;;5079809;28;20488;-74
2022/07/14 02:30:41;;;;;;;9.07;2.70;;;14.50;99.90;;;;;;5087430;28;20390;-75
2022/07/14 02:33:07;;;;;;;11.18;2.65;;;14.50;99.90;;;;;;5087701;28;20523;-74
2022/07/14 02:35:34;;;;;;;7.78;2.53;;;14.40;99.90;;;;;;5073139;28;20465;-74
2022/07/14 02:38:00;;;;;;;8.15;2.67;;;14.40;99.90;;;;;;5087517;28;20410;-74
2022/07/14 02:40:25;;;;;;;11.05;2.38;;;14.40;99.90;;;;;;5068899;28;20407;-74
2022/07/14 02:42:52;;;;;;;9.20;2.47;;;14.40;99.90;;;;;;5079663;28;20455;-74
2022/07/14 02:45:18;;;;;;;9.13;2.05;;;14.40;99.90;;;;;;5081698;28;20858;-75
2022/07/14 02:47:43;;;;;;;9.07;2.70;;;14.30;99.90;;;;;;5067796;28;20800;-75
2022/07/14 02:50:10;;;;;;;9.15;2.60;;;14.30;99.90;;;;;;5073916;28;20394;-75
2022/07/14 02:52:36;;;;;;;8.70;2.20;;;14.30;99.90;;;;;;5087352;28;20409;-74
2022/07/14 02:55:02;;;;;;;9.60;2.08;;;14.30;99.90;;;;;;5074012;28;20517;-74
2022/07/14 02:57:27;;;;;;;8.63;2.63;;;14.30;99.90;;;;;;5075069;28;20545;-75
2022/07/14 02:59:53;;;;;;;10.07;2.67;;;14.30;99.90;;;;;;5089330;28;20966;-74
2022/07/14 03:02:19;;;;;;;8.38;2.08;;;14.30;99.90;;;;;;5090704;28;20409;-74
2022/07/14 03:04:44;;;;;;;8.40;2.38;;;14.20;99.90;;;;;;5072411;28;20406;-74
2022/07/14 03:07:10;;;;;;;8.80;2.00;;;14.20;99.90;;;;;;5083985;28;20402;-74
2022/07/14 03:09:36;;;;;;;6.82;2.35;;;14.20;99.90;;;;;;5089543;28;20503;-75
2022/07/14 03:12:01;;;;;;;8.80;2.60;;;14.20;99.90;;;;;;5078097;28;20391;-73
2022/07/14 03:14:27;;;;;;;9.85;2.47;;;14.20;99.90;;;;;;5084552;28;20407;-74
2022/07/14 03:16:53;;;;;;;9.10;2.43;;;14.20;99.90;;;;;;5082179;28;20508;-74
2022/07/14 03:19:18;;;;;;;7.93;2.30;;;14.10;99.90;;;;;;5090228;28;20425;-74
2022/07/14 03:21:44;;;;;;;9.70;2.30;;;14.10;99.90;;;;;;5078875;28;20403;-73
2022/07/14 03:24:10;;;;;;;8.70;2.80;;;14.10;99.90;;;;;;5074981;28;20427;-75
2022/07/14 03:26:36;;;;;;;9.90;2.58;;;14.10;99.90;;;;;;5090457;28;20405;-75
2022/07/14 03:29:02;;;;;;;8.03;2.03;;;14.00;99.90;;;;;;5090069;28;20405;-74
2022/07/14 03:31:27;;;;;;;7.57;2.33;;;14.00;99.90;;;;;;5079059;28;20453;-73
2022/07/14 03:33:53;;;;;;;8.63;1.80;;;14.00;99.90;;;;;;5087448;28;20406;-74
2022/07/14 03:36:20;;;;;;;8.00;2.20;;;14.00;99.90;;;;;;5090130;28;21005;-74
2022/07/14 03:38:46;;;;;;;11.23;2.75;;;14.00;99.90;;;;;;5089453;28;20442;-74
2022/07/14 03:41:12;;;;;;;7.60;2.35;;;14.00;99.90;;;;;;5088564;28;20421;-74
2022/07/14 03:43:38;;;;;;;9.40;2.85;;;14.00;99.90;;;;;;5089239;28;20408;-74
2022/07/14 03:46:04;;;;;;;6.80;2.40;;;14.00;99.90;;;;;;5090178;28;20405;-74
2022/07/14 03:48:31;;;;;;;8.88;2.30;;;14.00;99.90;;;;;;5089579;28;20412;-75
2022/07/14 03:50:57;;;;;;;8.03;2.40;;;14.00;99.90;;;;;;5089956;28;20464;-73
2022/07/14 03:53:23;;;;;;;10.05;2.50;;;14.00;99.90;;;;;;5089405;28;20441;-75
2022/07/14 03:55:48;;;;;;;8.07;2.50;;;14.00;99.90;;;;;;5088465;28;20462;-74
2022/07/14 03:58:14;;;;;;;8.85;2.28;;;14.00;99.90;;;;;;5089579;28;20409;-74
2022/07/14 04:00:40;;;;;;;7.47;2.30;;;14.00;99.90;;;;;;5089516;28;20468;-74
2022/07/14 04:03:06;;;;;;;8.35;2.55;;;14.00;99.90;;;;;;5089225;28;20424;-74
2022/07/14 04:05:32;;;;;;;7.13;2.53;;;14.00;99.90;;;;;;5089598;28;20394;-74
2022/07/14 04:07:57;;;;;;;7.10;2.33;;;14.00;99.90;;;;;;5089132;28;21318;-74
2022/07/14 04:10:23;;;;;;;8.45;2.30;;;14.00;99.90;;;;;;5089306;28;20394;-75
2022/07/14 04:12:49;;;;;;;9.43;2.30;;;14.00;99.90;;;;;;5089549;28;20398;-73
2022/07/14 04:15:14;;;;;;;9.07;2.17;;;14.10;99.90;;;;;;5089172;28;20803;-74
2022/07/14 04:17:40;;;;;;;7.87;2.50;;;14.10;99.90;;;;;;5075816;28;20394;-74
2022/07/14 04:20:07;;;;;;;6.65;2.03;;;14.20;99.90;;;;;;5089283;28;20892;-74
2022/07/14 04:22:32;;;;;;;7.65;2.13;;;14.20;99.90;;;;;;5088491;28;20390;-74
2022/07/14 04:24:59;;;;;;;5.05;1.88;;;14.20;99.90;;;;;;5088689;28;20497;-74
2022/07/14 04:27:25;;;;;;;9.77;2.30;;;14.20;99.90;;;;;;5087940;28;20406;-74
2022/07/14 04:29:51;;;;;;;8.73;2.03;;;14.30;99.90;;;;;;5088681;28;20405;-74
2022/07/14 04:32:17;;;;;;;9.18;2.38;;;14.30;99.90;;;;;;5088559;28;20760;-73
2022/07/14 04:34:44;;;;;;;7.10;2.22;;;14.30;99.90;;;;;;5088736;28;20927;-74
2022/07/14 04:37:11;;;;;;;7.65;2.13;;;14.40;99.90;;;;;;5088020;28;20417;-74
2022/07/14 04:39:37;;;;;;;6.95;1.92;;;14.40;99.90;;;;;;5088582;28;20442;-75
2022/07/14 04:42:04;;;;;;;7.82;1.95;;;14.50;99.90;;;;;;5088843;28;20426;-73
2022/07/14 04:44:30;;;;;;;9.10;1.70;;;14.50;99.90;;;;;;5088207;28;20482;-74
2022/07/14 04:46:56;;;;;;;6.25;1.80;;;14.60;99.90;;;;;;5082305;28;20490;-74
2022/07/14 04:52:06;;;;;;;5.13;1.60;;;14.70;99.90;;;;;;5075630;28;21128;-74
2022/07/14 04:54:33;;;;;;;5.75;1.40;;;14.80;99.90;;;;;;5087622;28;20402;-73
2022/07/14 04:57:00;;;;;;;5.53;1.35;;;14.80;99.90;;;;;;5088694;28;20433;-74
2022/07/14 04:59:27;;;;;;;7.35;1.77;;;14.80;99.90;;;;;;5087902;28;20417;-73
2022/07/14 05:01:53;;;;;;;6.85;1.90;;;14.80;99.90;;;;;;5088551;28;20957;-73
2022/07/14 05:04:18;;;;;;;6.05;1.50;;;14.90;99.90;;;;;;5086874;28;20399;-74
2022/07/14 05:06:46;;;;;;;7.40;1.20;;;14.90;99.90;;;;;;5088706;28;20448;-74
2022/07/14 05:09:13;;;;;;;6.10;1.20;;;15.00;99.90;;;;;;5088107;28;20406;-73
2022/07/14 05:11:39;;;;;;;6.22;1.63;;;15.00;99.90;;;;;;5069957;28;20823;-74
2022/07/14 05:14:05;;;;;;;6.70;1.25;;;15.10;99.90;;;;;;5088402;28;20473;-74
2022/07/14 05:16:31;;;;;;;6.88;1.35;;;15.20;99.90;;;;;;5079591;28;20463;-75
2022/07/14 05:18:57;;;;;;;4.47;1.17;;;15.20;99.90;;;;;;5069827;28;20434;-73
2022/07/14 05:21:23;;;;;;;7.97;1.10;;;15.20;99.90;;;;;;5078746;28;20392;-74
2022/07/14 05:23:48;;;;;;;7.13;1.27;;;15.30;99.90;;;;;;5083080;28;20394;-74
2022/07/14 05:26:14;;;;;;;5.97;1.40;;;15.30;99.90;;;;;;5088669;28;20405;-74
2022/07/14 05:28:40;;;;;;;7.43;1.90;;;15.40;99.90;;;;;;5087878;28;20394;-73
2022/07/14 05:31:07;;;;;;;5.65;1.23;;;15.40;99.90;;;;;;5086474;28;20895;-74
2022/07/14 05:33:32;;;;;;;8.80;1.60;;;15.50;99.90;;;;;;5088228;28;20409;-74
2022/07/14 05:35:58;;;;;;;7.03;1.00;;;15.50;99.90;;;;;;5088154;28;20915;-74
2022/07/14 05:38:24;;;;;;;6.10;0.90;;;15.60;99.90;;;;;;5086901;28;20394;-73
2022/07/14 05:40:50;;;;;;;6.63;1.20;;;15.70;99.90;;;;;;5076512;28;20888;-74
2022/07/14 05:43:18;;;;;;;6.85;1.10;;;15.70;99.90;;;;;;5086644;28;20489;-74
2022/07/14 05:45:43;;;;;;;8.60;1.20;;;15.80;99.90;;;;;;5068681;28;20800;-74
2022/07/14 05:48:09;;;;;;;6.20;0.80;;;15.90;99.90;;;;;;5070771;28;20528;-73
2022/07/14 05:50:35;;;;;;;4.82;0.70;;;16.00;99.90;;;;;;5087711;28;20767;-74
2022/07/14 05:53:00;;;;;;;4.80;0.60;;;16.00;99.90;;;;;;5074778;28;20486;-73
2022/07/14 05:55:26;;;;;;;7.00;0.73;;;16.10;99.90;;;;;;5087879;28;20418;-72
2022/07/14 05:57:51;;;;;;;6.67;1.10;;;16.10;99.90;;;;;;5078797;28;20416;-74
2022/07/14 06:00:17;;;;;;;5.50;1.00;;;16.20;99.90;;;;;;5084589;28;20897;-73
2022/07/14 06:02:43;;;;;;;5.47;0.70;;;16.30;99.90;;;;;;5085158;28;20411;-74
2022/07/14 06:05:10;;;;;;;3.83;0.50;;;16.30;99.90;;;;;;5088247;28;20937;-73
2022/07/14 06:07:36;;;;;;;6.57;0.82;;;16.40;99.90;;;;;;5080902;28;20539;-74
2022/07/14 06:10:02;;;;;;;4.20;0.57;;;16.40;99.90;;;;;;5083545;28;20406;-74
2022/07/14 06:12:28;;;;;;;3.42;0.50;;;16.50;99.90;;;;;;5086222;28;20760;-74
2022/07/14 06:14:54;;;;;;;4.60;0.60;;;16.60;99.90;;;;;;5074834;28;20423;-74
2022/07/14 06:17:20;;;;;;;6.40;0.70;;;16.60;99.90;;;;;;5086040;28;20417;-74
2022/07/14 06:19:45;;;;;;;6.27;0.80;;;16.60;99.90;;;;;;5077064;28;20414;-74
2022/07/14 06:22:11;;;;;;;4.63;0.70;;;16.70;99.90;;;;;;5087264;28;20394;-74
2022/07/14 06:24:43;;;;;;;3.70;0.57;;;16.70;99.90;;;;;;5083314;28;20957;-74
2022/07/14 06:27:09;;;;;;;5.55;0.50;;;16.80;99.90;;;;;;5087234;28;20410;-73
2022/07/14 06:29:35;;;;;;;5.93;1.00;;;16.80;99.90;;;;;;5086680;28;20493;-73
2022/07/14 06:32:00;;;;;;;4.78;0.50;;;16.80;99.90;;;;;;5084426;28;20469;-74
2022/07/14 06:34:27;;;;;;;3.57;0.37;;;16.90;99.90;;;;;;5084516;28;20425;-74
2022/07/14 06:36:53;;;;;;;5.57;0.50;;;17.00;99.90;;;;;;5090955;28;20441;-74
2022/07/14 06:39:19;;;;;;;2.83;0.30;;;17.00;99.90;;;;;;5087664;28;20405;-74
2022/07/14 06:41:45;;;;;;;3.70;0.50;;;17.10;99.90;;;;;;5086400;28;20410;-74
2022/07/14 06:44:10;;;;;;;2.58;0.50;;;17.10;99.90;;;;;;5089041;28;20467;-74
2022/07/14 06:46:39;;;;;;;3.47;0.30;;;17.10;99.90;;;;;;5089878;28;20433;-74
2022/07/14 06:49:05;;;;;;;3.10;0.43;;;17.10;99.90;;;;;;5090482;28;20402;-74
2022/07/14 06:51:31;;;;;;;4.55;0.40;;;17.20;99.90;;;;;;5090665;28;20408;-74
2022/07/14 06:53:56;;;;;;;4.30;0.30;;;17.20;99.90;;;;;;5089794;28;20512;-74
2022/07/14 06:56:22;;;;;;;3.28;0.50;;;17.20;99.90;;;;;;5090067;28;20915;-74
2022/07/14 06:58:48;;;;;;;2.72;0.22;;;17.30;99.90;;;;;;5084599;28;20554;-74
2022/07/14 07:01:14;;;;;;;3.43;0.50;;;17.30;99.90;;;;;;5071143;28;20407;-74
2022/07/14 07:03:39;;;;;;;3.20;0.30;;;17.40;99.90;;;;;;5080747;28;20407;-74
2022/07/14 07:08:49;;;;;;;4.50;0.50;;;17.50;99.90;;;;;;5082603;28;20456;-74
2022/07/14 07:11:15;;;;;;;3.10;0.45;;;17.60;99.90;;;;;;5081646;28;21061;-74
2022/07/14 07:13:41;;;;;;;4.53;0.38;;;17.60;99.90;;;;;;5073627;28;20407;-74
2022/07/14 07:16:07;;;;;;;3.60;0.38;;;17.70;99.90;;;;;;5082820;28;20429;-74
2022/07/14 07:18:36;;;;;;;3.10;0.45;;;17.80;99.90;;;;;;5078227;28;20461;-74
2022/07/14 07:21:03;;;;;;;3.50;0.20;;;17.90;99.90;;;;;;5075379;28;20405;-74
2022/07/14 07:23:30;;;;;;;5.17;0.30;;;18.10;99.90;;;;;;5073391;28;21005;-74
2022/07/14 07:25:56;;;;;;;3.50;0.40;;;18.20;99.90;;;;;;5074372;28;20817;-74
2022/07/14 07:28:21;;;;;;;3.03;0.40;;;18.20;99.90;;;;;;5069474;28;20404;-74
2022/07/14 07:30:47;;;;;;;15.07;2.37;;;18.20;99.90;;;;;;5069755;28;20438;-74
2022/07/14 07:33:13;;;;;;;3.88;0.63;;;18.10;99.90;;;;;;5075766;28;20471;-75
2022/07/14 07:35:42;;;;;;;3.90;0.30;;;18.10;99.90;;;;;;5077707;28;20422;-74
2022/07/14 07:38:08;;;;;;;4.50;0.20;;;18.10;99.90;;;;;;5088685;28;20838;-75
2022/07/14 07:40:34;;;;;;;2.70;0.30;;;18.20;99.90;;;;;;5087591;28;20406;-75
2022/07/14 07:43:00;;;;;;;2.33;0.20;;;18.30;99.90;;;;;;5087708;28;20415;-75
2022/07/14 07:45:25;;;;;;;2.97;0.47;;;18.50;99.90;;;;;;5088613;28;20459;-75
2022/07/14 07:47:51;;;;;;;2.03;0.50;;;18.50;99.90;;;;;;5090067;28;20394;-75
2022/07/14 07:50:17;;;;;;;1.20;0.20;;;18.50;99.90;;;;;;5089204;28;20414;-75
2022/07/14 07:52:42;;;;;;;3.87;0.30;;;18.40;99.90;;;;;;5079332;28;20417;-75
2022/07/14 07:55:09;;;;;;;3.45;0.30;;;18.40;99.90;;;;;;5087920;28;20784;-75
2022/07/14 07:57:36;;;;;;;3.83;0.50;;;18.50;99.90;;;;;;5089983;28;20467;-75
2022/07/14 08:00:06;;;;;;;3.78;0.50;;;18.50;99.90;;;;;;5068817;28;20455;-75
2022/07/14 08:02:32;;;;;;;2.50;0.30;;;18.60;99.90;;;;;;5084934;28;20483;-74
2022/07/14 08:04:57;;;;;;;2.57;0.40;;;18.70;99.90;;;;;;5088436;28;20421;-75
2022/07/14 08:07:23;;;;;;;3.47;0.30;;;18.80;99.90;;;;;;5079187;28;20498;-75
2022/07/14 08:09:49;;;;;;;2.63;0.20;;;18.90;99.90;;;;;;5085360;28;20476;-75
2022/07/14 08:12:14;;;;;;;2.00;0.20;;;18.90;99.90;;;;;;5082944;28;20918;-75
2022/07/14 08:14:50;;;;;;;2.83;0.50;;;19.00;99.90;;;;;;5083426;28;20410;-75
2022/07/14 08:17:17;;;;;;;1.95;0.15;;;19.10;99.90;;;;;;5083967;28;20422;-74
2022/07/14 08:19:43;;;;;;;3.67;0.35;;;19.20;99.90;;;;;;5086811;28;20992;-74
2022/07/14 08:22:09;;;;;;;2.30;0.20;;;19.20;99.60;;;;;;5089374;28;20451;-75
2022/07/14 08:24:34;;;;;;;3.92;0.20;;;19.30;99.60;;;;;;5087677;28;20471;-75
2022/07/14 08:27:00;;;;;;;2.30;0.20;;;19.50;99.60;;;;;;5089168;28;20835;-75
2022/07/14 08:29:25;;;;;;;4.20;0.80;;;19.50;99.10;;;;;;5089397;28;20430;-75
2022/07/14 08:31:51;;;;;;;2.20;0.20;;;19.60;99.20;;;;;;5087173;28;20433;-75
2022/07/14 08:34:17;;;;;;;2.58;0.28;;;19.60;99.20;;;;;;5088275;28;21212;-75
2022/07/14 08:36:43;;;;;;;1.20;0.17;;;19.60;98.50;;;;;;5086021;28;20438;-75
2022/07/14 08:39:08;;;;;;;2.25;0.10;;;19.50;98.10;;;;;;5084470;28;20415;-75
2022/07/14 08:41:37;;;;;;;1.75;0.10;;;19.60;97.90;;;;;;5083523;28;20422;-75
2022/07/14 08:44:04;;;;;;;1.57;0.20;;;19.70;97.40;;;;;;5088995;28;20530;-75
2022/07/14 08:46:36;;;;;;;1.67;0.10;;;19.80;97.70;;;;;;5088246;28;20846;-75
2022/07/14 08:49:02;;;;;;;3.70;0.50;;;20.00;96.80;;;;;;5087909;28;20471;-75
2022/07/14 08:51:28;;;;;;;2.90;0.20;;;20.20;96.90;;;;;;5087608;28;20421;-75
2022/07/14 08:53:54;;;;;;;1.15;0.10;;;20.20;97.40;;;;;;5087040;28;21168;-75
2022/07/14 08:56:20;;;;;;;2.05;0.40;;;20.20;97.40;;;;;;5072584;28;20550;-75
2022/07/14 08:58:47;;;;;;;1.55;0.20;;;20.30;97.30;;;;;;5084413;28;20449;-75
2022/07/14 09:01:13;;;;;;;3.38;0.25;;;20.20;97.10;;;;;;5087227;28;21247;-75
2022/07/14 09:03:39;;;;;;;3.17;0.30;;;20.10;97.30;;;;;;5088276;28;20530;-75
2022/07/14 09:06:05;;;;;;;2.63;0.28;;;20.10;97.70;;;;;;5086689;28;20954;-75
2022/07/14 09:08:55;;;;;;;2.53;0.30;;;20.20;97.70;;;;;;5087621;28;20414;-77
2022/07/14 09:11:22;;;;;;;2.97;0.30;;;20.20;97.40;;;;;;5076879;28;20441;-76
2022/07/14 09:13:49;;;;;;;1.42;0.10;;;20.40;97.00;;;;;;5080526;28;20858;-77
2022/07/14 09:16:14;;;;;;;2.80;0.20;;;20.50;97.00;;;;;;5085875;28;20425;-77
2022/07/14 09:18:41;;;;;;;3.45;0.30;;;20.70;97.20;;;;;;5078670;28;20429;-75
2022/07/14 09:21:20;;;;;;;2.70;0.40;;;20.70;96.80;;;;;;5083223;28;22178;-75
2022/07/14 09:23:46;;;;;;;3.58;0.32;;;20.60;96.80;;;;;;5081200;28;20418;-74
2022/07/14 09:26:19;;;;;;;3.45;0.60;;;20.60;96.90;;;;;;5088521;28;20417;-74
2022/07/14 09:28:48;;;;;;;2.47;0.30;;;20.70;96.40;;;;;;5083737;28;20528;-74
2022/07/14 09:31:32;;;;;;;2.95;0.43;;;20.70;96.10;;;;;;5087724;28;20554;-74
2022/07/14 09:34:00;;;;;;;2.03;0.20;;;20.60;95.90;;;;;;5086060;28;20497;-74
2022/07/14 09:36:33;;;;;;;1.73;0.20;;;20.50;96.30;;;;;;5088510;28;20426;-74
2022/07/14 09:39:12;;;;;;;1.92;0.20;;;20.50;96.20;;;;;;5076341;28;20425;-74
2022/07/14 09:41:55;;;;;;;1.90;0.15;;;20.60;96.50;;;;;;5074873;28;20469;-74
2022/07/14 09:44:22;;;;;;;2.45;0.10;;;20.90;96.40;;;;;;5077901;28;20406;-74
2022/07/14 09:47:05;;;;;;;1.93;0.20;;;21.20;95.70;;;;;;5087886;28;20398;-75
2022/07/14 09:49:31;;;;;;;1.75;0.17;;;21.40;95.90;;;;;;5088332;28;20492;-74
2022/07/14 09:52:01;;;;;;;3.10;0.22;;;21.60;95.50;;;;;;5087739;28;20406;-75
2022/07/14 09:54:41;;;;;;;2.40;0.20;;;21.80;95.60;;;;;;5087654;28;20462;-74
2022/07/14 09:57:12;;;;;;;2.40;0.20;;;22.10;95.10;;;;;;5087102;28;20430;-75
2022/07/14 09:59:46;;;;;;;1.70;0.40;;;22.30;94.00;;;;;;5078846;28;20459;-74
2022/07/14 10:02:17;;;;;;;3.05;0.20;;;22.30;93.60;;;;;;5087386;28;20509;-74
2022/07/14 10:04:44;;;;;;;1.50;0.20;;;22.20;93.00;;;;;;5086008;28;20471;-75
2022/07/14 10:07:11;;;;;;;2.50;0.13;;;22.00;93.40;;;;;;5088200;28;20484;-73
2022/07/14 10:09:42;;;;;;;3.30;0.10;;;21.80;93.30;;;;;;5091240;28;20416;-73
2022/07/14 10:12:08;;;;;;;1.92;0.28;;;21.70;93.40;;;;;;5091936;28;20456;-74
2022/07/14 10:14:34;;;;;;;2.60;0.20;;;21.80;93.70;;;;;;5089922;28;20903;-75
2022/07/14 10:17:01;;;;;;;1.83;0.10;;;22.00;93.40;;;;;;5091906;28;20456;-74
2022/07/14 10:19:27;;;;;;;1.63;0.13;;;22.20;92.10;;;;;;5084299;28;20415;-74
2022/07/14 10:21:55;;;;;;;1.80;0.30;;;22.20;92.30;;;;;;5084338;28;20801;-74
2022/07/14 10:24:23;;;;;;;2.53;0.20;;;22.40;92.40;;;;;;5090892;28;20422;-75
2022/07/14 10:26:48;;;;;;;2.73;0.30;;;22.50;92.30;;;;;;5091119;28;20397;-74
2022/07/14 10:29:14;;;;;;;3.05;0.40;;;22.40;92.40;;;;;;5081412;28;20410;-74
2022/07/14 10:31:58;;;;;;;1.03;0.20;;;22.40;92.20;;;;;;5088073;28;20417;-74
2022/07/14 10:34:38;;;;;;;1.33;0.20;;;22.50;92.60;;;;;;5079431;28;20471;-75
2022/07/14 10:37:16;;;;;;;2.60;0.20;;;22.70;92.40;;;;;;5079999;28;20429;-75
2022/07/14 10:40:04;;;;;;;2.00;0.20;;;22.90;91.10;;;;;;5084577;28;20609;-74
2022/07/14 10:42:56;;;;;;;1.83;0.20;;;23.00;91.50;;;;;;5084387;28;20459;-74
2022/07/14 10:45:24;;;;;;;2.30;0.20;;;22.80;91.20;;;;;;5085117;28;20400;-74
2022/07/14 10:47:53;;;;;;;2.13;0.20;;;22.70;91.30;;;;;;5080352;28;20447;-74
2022/07/14 10:50:26;;;;;;;2.07;0.33;;;22.60;91.80;;;;;;5079701;28;20895;-74
2022/07/14 10:52:55;;;;;;;1.30;0.10;;;22.60;91.70;;;;;;5088437;28;20446;-74
2022/07/14 10:55:23;;;;;;;2.95;0.30;;;22.60;91.60;;;;;;5086405;28;20442;-73
2022/07/14 10:58:06;;;;;;;2.13;0.30;;;22.40;91.30;;;;;;5072441;28;21840;-74
2022/07/14 11:00:47;;;;;;;2.70;0.25;;;22.20;91.00;;;;;;5085885;28;20861;-73
2022/07/14 11:03:22;;;;;;;2.23;0.20;;;22.10;91.10;;;;;;5077485;28;20454;-74
2022/07/14 11:06:03;;;;;;;1.70;0.20;;;22.00;91.60;;;;;;5079376;28;20418;-74
2022/07/14 11:08:32;;;;;;;2.40;0.20;;;21.90;91.30;;;;;;5070093;28;20420;-74
2022/07/14 11:11:00;;;;;;;1.92;0.15;;;21.80;91.00;;;;;;5073017;28;20436;-74
2022/07/14 11:13:27;;;;;;;1.73;0.20;;;21.60;91.10;;;;;;5079482;28;20398;-74
2022/07/14 11:16:02;;;;;;;1.58;0.50;;;21.60;91.20;;;;;;5075865;28;20445;-74
2022/07/14 11:18:41;;;;;;;3.05;0.30;;;21.50;91.10;;;;;;5073620;28;20480;-74
2022/07/14 11:21:17;;;;;;;1.50;0.30;;;21.50;91.20;;;;;;5083815;28;20411;-74
2022/07/14 11:23:46;;;;;;;2.95;0.30;;;21.40;91.20;;;;;;5075865;28;21119;-75
2022/07/14 11:26:42;;;;;;;2.05;0.20;;;21.40;91.40;;;;;;5081970;28;20468;-75
2022/07/14 11:29:09;;;;;;;1.67;0.20;;;21.40;91.60;;;;;;5076611;28;20410;-75
2022/07/14 11:31:50;;;;;;;3.33;0.20;;;21.40;92.10;;;;;;5086545;28;20406;-75
2022/07/14 11:37:11;;;;;;;1.60;0.30;;;22.00;92.50;;;;;;5087080;28;20752;-75
2022/07/14 11:39:44;;;;;;;2.72;0.30;;;22.10;91.80;;;;;;5088261;28;20473;-75
2022/07/14 11:42:12;;;;;;;3.05;0.50;;;22.20;92.10;;;;;;5087113;28;20463;-74
2022/07/14 11:44:40;;;;;;;2.28;0.20;;;22.40;91.80;;;;;;5082605;28;20398;-75
2022/07/14 11:47:33;;;;;;;2.83;0.22;;;22.70;91.70;;;;;;5083640;28;20414;-74
2022/07/14 11:50:06;;;;;;;1.75;0.20;;;23.20;91.20;;;;;;5087050;28;20402;-74
2022/07/14 11:52:37;;;;;;;2.60;0.40;;;23.40;90.70;;;;;;5088889;28;20987;-74
2022/07/14 11:55:08;;;;;;;2.20;0.30;;;23.40;90.70;;;;;;5089671;28;20965;-74
2022/07/14 11:57:34;;;;;;;2.83;0.30;;;23.40;89.60;;;;;;5089952;28;20455;-75
2022/07/14 12:00:08;;;;;;;2.72;0.25;;;23.40;90.10;;;;;;5083589;28;20760;-74
2022/07/14 12:02:49;;;;;;;1.95;0.20;;;23.50;90.20;;;;;;5084447;28;20406;-74
2022/07/14 12:05:14;;;;;;;1.52;0.10;;;23.70;87.50;;;;;;5088495;28;20842;-75
2022/07/14 12:07:49;;;;;;;1.80;0.20;;;23.60;85.80;;;;;;5089673;28;20429;-75
2022/07/14 12:10:32;;;;;;;3.05;0.20;;;23.30;84.50;;;;;;5087412;28;20444;-74
2022/07/14 12:12:58;;;;;;;2.10;0.20;;;23.10;85.90;;;;;;5079448;28;20501;-74
2022/07/14 12:15:25;;;;;;;3.00;0.30;;;23.10;86.40;;;;;;5087244;28;20868;-74
2022/07/14 12:17:53;;;;;;;2.85;0.40;;;23.00;86.00;;;;;;5087240;28;20501;-74
2022/07/14 12:20:20;;;;;;;4.03;0.60;;;22.90;85.40;;;;;;5089228;28;20436;-73
2022/07/14 12:22:56;;;;;;;2.15;0.30;;;22.80;86.00;;;;;;5084181;28;20508;-74
2022/07/14 12:25:34;;;;;;;1.90;0.20;;;22.80;86.70;;;;;;5086076;28;20456;-73
2022/07/14 12:28:05;;;;;;;2.33;0.20;;;22.90;85.60;;;;;;5087988;28;20974;-73
2022/07/14 12:31:02;;;;;;;3.70;0.30;;;23.10;85.50;;;;;;5088341;28;20422;-74
2022/07/14 12:33:37;;;;;;;2.58;0.28;;;23.40;84.40;;;;;;5082656;28;20433;-73
2022/07/14 12:36:04;;;;;;;3.72;0.50;;;23.60;82.70;;;;;;5074625;28;21423;-74
2022/07/14 12:38:33;;;;;;;3.47;0.20;;;23.60;82.40;;;;;;5085049;28;20430;-74
2022/07/14 12:41:04;;;;;;;2.28;0.20;;;23.70;83.20;;;;;;5085707;28;21107;-74
2022/07/14 12:43:41;;;;;;;2.00;0.30;;;23.80;82.20;;;;;;5085580;28;20418;-74
2022/07/14 12:46:15;;;;;;;2.95;0.30;;;23.90;81.40;;;;;;5084753;28;20425;-74
2022/07/14 12:48:50;;;;;;;2.92;0.40;;;24.10;81.80;;;;;;5086629;28;20417;-74
2022/07/14 12:51:22;;;;;;;3.38;0.30;;;24.10;79.00;;;;;;5087175;28;20504;-74
2022/07/14 12:54:10;;;;;;;2.33;0.30;;;23.80;79.10;;;;;;5084656;28;20454;-74
2022/07/14 12:56:51;;;;;;;3.03;0.30;;;23.70;79.80;;;;;;5067539;28;20459;-74
2022/07/14 12:59:28;;;;;;;3.87;0.50;;;23.60;81.00;;;;;;5079579;28;20483;-74
2022/07/14 13:01:59;;;;;;;2.40;0.35;;;23.70;82.20;;;;;;5079776;28;20423;-75
2022/07/14 13:04:31;;;;;;;1.77;0.30;;;23.60;82.00;;;;;;5083411;28;20434;-74